CheckWX is a tool to help pilots better visualize weather data.  It is not intended as a substitute for an official pre-flight weather briefing.

02:25:19 UTC

CYKA TAF
Kamloops Airport
Kamloops, Canada
TAF CYKA 150040Z 1501/1513 VRB03KT P6SM BKN080 BECMG 1504/1506 10008KT RMK NXT FCST BY 150700Z

Oct-15@
01:00 UTC

Oct-15 @ 01:00 UTC

Oct-15@
04:00 UTC

Oct-15 @ 04:00 UTC

TAF CYKA 150040Z 1501/1513 VRB03KT P6SM BKN080
Wind
  • Variable at 3 KTS
Cloud Levels
  • Broken at 8,000' AGL

Oct-15@
04:00 UTC

Oct-15 @ 04:00 UTC

Oct-15@
13:00 UTC

Oct-15 @ 13:00 UTC

BECMG 1504/1506 10008KT RMK NXT FCST BY 150700Z

Becoming

Becoming Conditions expected by Tue, Oct 15, 2019 @ 06:00 UTC

Wind
  • 100° at 8 KTS
Cloud Levels
  • Broken at 8,000' AGL